Time;durP1;ratioP1;P1;durP2;ratioP2;P2;SDS_P1;SDS_P2;PMS_P1;PMS_P2;Temp;Humidity;BMP_temperature;BMP_pressure;BME280_temperature;BME280_humidity;BME280_pressure;Samples;Min_cycle;Max_cycle;Signal;HPM_P1;HPM_P2
2023/01/13 00:02:16;;;;;;;0.60;0.40;;;;;;;27.05;31.51;98667.44;5039994;28;20303;-61
2023/01/13 00:04:41;;;;;;;0.50;0.50;;;;;;;27.08;31.65;98664.81;5038147;28;20028;-61
2023/01/13 00:07:07;;;;;;;0.30;0.30;;;;;;;27.09;31.56;98662.88;5036716;28;20104;-60
2023/01/13 00:09:35;;;;;;;0.40;0.40;;;;;;;27.09;31.97;98663.66;5039781;28;20047;-62
2023/01/13 00:12:01;;;;;;;0.40;0.40;;;;;;;27.09;31.60;98649.94;5037340;28;20025;-60
2023/01/13 00:14:28;;;;;;;0.40;0.40;;;;;;;27.10;31.83;98656.25;5035457;28;20035;-61
2023/01/13 00:16:55;;;;;;;0.28;0.28;;;;;;;27.13;31.61;98652.81;5036373;28;20491;-61
2023/01/13 00:19:20;;;;;;;0.40;0.40;;;;;;;27.12;31.72;98651.22;5036672;28;20423;-61
2023/01/13 00:21:46;;;;;;;0.38;0.38;;;;;;;27.08;31.63;98637.41;5038968;28;20021;-60
2023/01/13 00:24:15;;;;;;;0.40;0.40;;;;;;;27.12;31.41;98637.50;5037815;28;20029;-61
2023/01/13 00:26:40;;;;;;;0.40;0.40;;;;;;;27.17;31.67;98635.34;5034351;28;20094;-60
2023/01/13 00:29:06;;;;;;;0.30;0.30;;;;;;;27.17;31.46;98618.91;5035811;28;20124;-61
2023/01/13 00:31:32;;;;;;;0.50;0.50;;;;;;;27.17;31.36;98615.34;5034724;28;20032;-61
2023/01/13 00:34:00;;;;;;;0.40;0.40;;;;;;;27.21;31.55;98629.19;5035969;28;20025;-61
2023/01/13 00:36:26;;;;;;;0.43;0.38;;;;;;;27.13;31.33;98618.00;5035448;28;20037;-61
2023/01/13 00:38:53;;;;;;;0.43;0.43;;;;;;;27.24;31.52;98634.00;5039878;28;20025;-61
2023/01/13 00:41:20;;;;;;;0.20;0.20;;;;;;;27.25;31.34;98621.88;5018456;28;20448;-61
2023/01/13 00:43:46;;;;;;;0.25;0.25;;;;;;;27.22;31.39;98612.41;5037281;28;20025;-61
2023/01/13 00:46:14;;;;;;;0.22;0.22;;;;;;;27.25;31.30;98608.16;5036016;28;20357;-61
2023/01/13 00:48:40;;;;;;;0.32;0.20;;;;;;;27.21;31.32;98613.53;5037099;28;20528;-60
2023/01/13 00:51:08;;;;;;;0.25;0.25;;;;;;;27.24;31.41;98606.56;5036014;28;20523;-61
2023/01/13 00:53:36;;;;;;;0.25;0.25;;;;;;;27.26;31.16;98599.59;5035379;28;20135;-60
2023/01/13 00:56:13;;;;;;;0.30;0.30;;;;;;;27.28;31.06;98607.50;5035381;28;20404;-60
2023/01/13 00:58:38;;;;;;;0.32;0.32;;;;;;;27.24;31.29;98598.34;5036864;28;20111;-60
2023/01/13 01:01:15;;;;;;;0.30;0.30;;;;;;;27.28;31.18;98591.06;5037855;28;20032;-61
2023/01/13 01:03:41;;;;;;;0.40;0.40;;;;;;;27.22;31.21;98576.75;5036819;28;20032;-60
2023/01/13 01:06:13;;;;;;;0.40;0.40;;;;;;;27.29;31.20;98587.19;5035743;28;20117;-61
2023/01/13 01:08:39;;;;;;;0.22;0.22;;;;;;;27.27;31.23;98573.78;5037224;28;20484;-60
2023/01/13 01:11:12;;;;;;;0.20;0.20;;;;;;;27.32;31.28;98586.47;5035838;28;20115;-60
2023/01/13 01:13:37;;;;;;;0.50;0.40;;;;;;;27.31;31.03;98568.44;5035448;28;20077;-61
2023/01/13 01:16:08;;;;;;;0.30;0.30;;;;;;;27.33;30.99;98566.94;5038231;28;20020;-60
2023/01/13 01:18:35;;;;;;;0.30;0.30;;;;;;;27.33;30.79;98571.63;5036628;28;20032;-60
2023/01/13 01:21:01;;;;;;;0.40;0.30;;;;;;;27.34;31.07;98562.25;5035881;28;20391;-60
2023/01/13 01:23:28;;;;;;;0.25;0.25;;;;;;;27.34;30.82;98556.78;5038222;28;20037;-60
2023/01/13 01:25:53;;;;;;;0.30;0.30;;;;;;;27.36;31.09;98554.47;5036114;28;20025;-61
2023/01/13 01:28:19;;;;;;;0.30;0.30;;;;;;;27.36;30.97;98554.47;5036920;28;20041;-60
2023/01/13 01:30:45;;;;;;;0.20;0.20;;;;;;;27.37;30.97;98547.84;5034007;28;20391;-60
2023/01/13 01:33:11;;;;;;;0.30;0.30;;;;;;;27.38;31.02;98543.97;5035269;28;20033;-60
2023/01/13 01:35:39;;;;;;;0.30;0.30;;;;;;;27.36;31.11;98543.50;5036633;28;20597;-60
2023/01/13 01:38:05;;;;;;;0.30;0.30;;;;;;;27.43;30.86;98551.16;5037525;28;20078;-58
2023/01/13 01:40:30;;;;;;;0.20;0.20;;;;;;;27.40;30.99;98544.41;5036238;28;20556;-61
2023/01/13 01:45:40;;;;;;;0.30;0.30;;;;;;;27.45;30.97;98541.44;5037146;28;20560;-60
2023/01/13 01:48:05;;;;;;;0.20;0.20;;;;;;;27.43;31.02;98535.50;5036787;28;20037;-59
2023/01/13 01:50:31;;;;;;;0.30;0.30;;;;;;;27.43;30.68;98532.75;5033227;28;20029;-60
2023/01/13 01:53:00;;;;;;;0.47;0.30;;;;;;;27.43;30.65;98526.47;5033988;28;20028;-60
2023/01/13 01:55:28;;;;;;;0.65;0.40;;;;;;;27.43;30.96;98521.78;5035824;28;20103;-60
2023/01/13 01:58:07;;;;;;;0.20;0.20;;;;;;;27.44;31.08;98528.88;5036688;28;20158;-60
2023/01/13 02:00:33;;;;;;;0.20;0.20;;;;;;;27.43;30.89;98521.78;5035267;28;20060;-60
2023/01/13 02:02:58;;;;;;;0.30;0.30;;;;;;;27.44;30.82;98525.31;5035506;28;20021;-61
2023/01/13 02:05:24;;;;;;;0.28;0.28;;;;;;;27.45;30.66;98519.50;5037254;28;20025;-60
2023/01/13 02:07:51;;;;;;;0.40;0.40;;;;;;;27.45;30.79;98511.25;5035848;28;20021;-59
2023/01/13 02:10:19;;;;;;;0.20;0.20;;;;;;;27.44;30.84;98515.16;5033892;28;20032;-59
2023/01/13 02:12:45;;;;;;;0.28;0.28;;;;;;;27.47;30.86;98510.91;5016308;28;20038;-59
2023/01/13 02:15:17;;;;;;;0.30;0.20;;;;;;;27.52;30.90;98514.22;5025986;28;20036;-59
2023/01/13 02:18:08;;;;;;;0.30;0.30;;;;;;;27.50;30.83;98515.72;5032996;28;20102;-60
2023/01/13 02:20:59;;;;;;;0.30;0.20;;;;;;;27.52;30.84;98508.72;5033131;28;20039;-60
2023/01/13 02:27:06;;;;;;;0.30;0.30;;;;;;;27.53;30.85;98507.59;5031818;28;20586;-59
2023/01/13 02:32:29;;;;;;;0.28;0.20;;;;;;;27.57;30.44;98504.16;5034053;28;20047;-60
2023/01/13 02:35:01;;;;;;;0.20;0.20;;;;;;;27.51;30.76;98501.66;5035158;28;20036;-59
2023/01/13 02:37:28;;;;;;;0.22;0.22;;;;;;;27.52;30.94;98492.25;5034758;28;20657;-59
2023/01/13 02:40:24;;;;;;;0.20;0.20;;;;;;;27.58;30.85;98500.25;5018869;28;20024;-60
2023/01/13 02:46:08;;;;;;;0.13;0.13;;;;;;;27.51;30.76;98485.19;5013617;28;20048;-59
2023/01/13 02:48:34;;;;;;;0.38;0.30;;;;;;;27.52;30.58;98486.78;5036850;28;20135;-59
2023/01/13 02:51:04;;;;;;;0.25;0.25;;;;;;;27.59;30.44;98499.91;5035236;28;20116;-59
2023/01/13 02:54:03;;;;;;;0.20;0.20;;;;;;;27.61;30.72;98500.34;5033530;28;20048;-59
2023/01/13 02:56:29;;;;;;;0.20;0.20;;;;;;;27.61;30.84;98488.59;5024976;28;20067;-59
2023/01/13 02:58:55;;;;;;;0.20;0.20;;;;;;;27.62;30.34;98501.19;5031963;28;20500;-60
2023/01/13 03:01:21;;;;;;;0.22;0.22;;;;;;;27.58;30.46;98495.59;5018132;28;20021;-59
2023/01/13 03:03:48;;;;;;;0.30;0.30;;;;;;;27.61;30.74;98494.09;5035112;28;20087;-59
2023/01/13 03:06:30;;;;;;;0.10;0.10;;;;;;;27.64;30.65;98493.38;5035209;28;20025;-58
2023/01/13 03:09:07;;;;;;;0.20;0.20;;;;;;;27.63;30.60;98492.59;5032170;28;20033;-59
2023/01/13 03:11:50;;;;;;;0.20;0.20;;;;;;;27.65;30.52;98495.00;5035312;28;20384;-59
2023/01/13 03:14:25;;;;;;;0.20;0.20;;;;;;;27.64;30.48;98496.13;5036554;28;20029;-58
2023/01/13 03:17:18;;;;;;;0.20;0.20;;;;;;;27.65;30.72;98492.25;5033686;28;20025;-59
2023/01/13 03:19:49;;;;;;;0.10;0.10;;;;;;;27.64;30.75;98482.41;5034326;28;20455;-61
2023/01/13 03:22:43;;;;;;;0.10;0.10;;;;;;;27.67;30.46;98492.69;5036363;28;20074;-60
2023/01/13 03:25:30;;;;;;;0.15;0.15;;;;;;;27.65;30.61;98489.50;5027466;28;20135;-61
2023/01/13 03:28:20;;;;;;;0.20;0.20;;;;;;;27.65;30.65;98503.22;5035952;28;20048;-60
2023/01/13 03:30:49;;;;;;;0.20;0.20;;;;;;;27.65;30.44;98505.97;5034372;28;20036;-60
2023/01/13 03:33:16;;;;;;;0.20;0.20;;;;;;;27.65;30.44;98508.72;5015053;28;20025;-60
2023/01/13 03:35:48;;;;;;;0.10;0.10;;;;;;;27.66;30.27;98507.56;5033855;28;20021;-61
2023/01/13 03:38:21;;;;;;;0.30;0.22;;;;;;;27.69;30.29;98512.34;5031803;28;20099;-60
2023/01/13 03:40:51;;;;;;;0.30;0.30;;;;;;;27.67;30.15;98509.16;5035021;28;20029;-60
2023/01/13 03:46:07;;;;;;;0.10;0.10;;;;;;;27.71;30.12;98504.56;5016928;28;20087;-60
2023/01/13 03:48:34;;;;;;;0.20;0.20;;;;;;;27.70;30.25;98505.72;5033448;28;20025;-60
2023/01/13 03:51:06;;;;;;;0.17;0.17;;;;;;;27.68;30.36;98499.78;5035148;28;20096;-61
2023/01/13 03:53:35;;;;;;;0.20;0.20;;;;;;;27.68;30.32;98505.25;5033491;28;20115;-60
2023/01/13 03:56:12;;;;;;;0.10;0.10;;;;;;;27.70;30.22;98523.00;5034638;28;20032;-61
2023/01/13 03:58:42;;;;;;;0.20;0.20;;;;;;;27.71;30.17;98532.00;5032009;28;20025;-60
2023/01/13 04:01:18;;;;;;;0.32;0.30;;;;;;;27.77;30.20;98538.88;5032058;28;20447;-61
2023/01/13 04:04:08;;;;;;;0.10;0.10;;;;;;;27.76;30.52;98540.00;5035515;28;20473;-60
2023/01/13 04:06:42;;;;;;;0.15;0.15;;;;;;;27.72;30.62;98550.09;5036113;28;20033;-60
2023/01/13 04:09:12;;;;;;;0.10;0.10;;;;;;;27.73;30.26;98540.69;5035939;28;20029;-61
2023/01/13 04:11:41;;;;;;;0.20;0.20;;;;;;;27.63;30.28;98525.53;5038656;28;20021;-60
2023/01/13 04:14:07;;;;;;;0.13;0.13;;;;;;;27.73;30.04;98532.47;5037057;28;20154;-61
2023/01/13 04:16:33;;;;;;;0.15;0.15;;;;;;;27.70;30.14;98528.47;5019798;28;20356;-61
2023/01/13 04:18:58;;;;;;;0.20;0.20;;;;;;;27.72;30.37;98539.91;5033779;28;20074;-61
2023/01/13 04:21:24;;;;;;;0.20;0.20;;;;;;;27.72;30.28;98542.66;5037322;28;20074;-60
2023/01/13 04:23:50;;;;;;;0.20;0.20;;;;;;;27.76;30.42;98542.75;5038909;28;20548;-60
2023/01/13 04:26:18;;;;;;;0.25;0.25;;;;;;;27.75;30.27;98549.38;5038583;28;20051;-60
2023/01/13 04:28:44;;;;;;;0.20;0.20;;;;;;;27.78;30.24;98543.19;5037623;28;20041;-60
2023/01/13 04:31:11;;;;;;;0.20;0.20;;;;;;;27.72;29.96;98533.63;5038162;28;20029;-60
2023/01/13 04:33:36;;;;;;;0.20;0.20;;;;;;;27.79;30.03;98544.00;5035744;28;20523;-60
2023/01/13 04:36:02;;;;;;;1.33;0.25;;;;;;;27.79;30.22;98560.47;5039651;28;20035;-61
2023/01/13 04:38:28;;;;;;;0.20;0.20;;;;;;;27.77;30.03;98571.81;5035579;28;20251;-61
2023/01/13 04:40:53;;;;;;;0.10;0.10;;;;;;;27.76;30.40;98572.16;5034455;28;20024;-60
2023/01/13 04:43:19;;;;;;;0.10;0.10;;;;;;;27.80;30.34;98575.78;5035925;28;21736;-60
2023/01/13 04:45:45;;;;;;;0.20;0.20;;;;;;;27.76;30.18;98575.69;5039075;28;20029;-60
2023/01/13 04:48:11;;;;;;;0.10;0.10;;;;;;;27.76;30.27;98583.13;5038232;28;20025;-60
2023/01/13 04:50:36;;;;;;;0.17;0.17;;;;;;;27.79;30.32;98591.47;5036944;28;20082;-60
2023/01/13 04:53:02;;;;;;;0.15;0.15;;;;;;;27.81;29.89;98591.91;5037263;28;20108;-61
2023/01/13 04:55:28;;;;;;;0.17;0.17;;;;;;;27.82;29.90;98589.94;5037579;28;20021;-60
2023/01/13 04:57:53;;;;;;;0.10;0.10;;;;;;;27.78;30.07;98597.28;5037916;28;20060;-60
2023/01/13 05:00:20;;;;;;;0.22;0.22;;;;;;;27.81;30.12;98597.41;5037741;28;20033;-60
2023/01/13 05:02:48;;;;;;;0.10;0.10;;;;;;;27.84;30.08;98602.19;5035971;28;20025;-61
2023/01/13 05:05:14;;;;;;;0.20;0.20;;;;;;;27.81;30.04;98608.38;5034401;28;20575;-62
2023/01/13 05:07:40;;;;;;;0.40;0.20;;;;;;;27.79;30.03;98605.19;5036338;28;20430;-60
2023/01/13 05:10:05;;;;;;;0.20;0.20;;;;;;;27.75;30.05;98596.03;5037576;28;20108;-60
2023/01/13 05:18:00;;;;;;;0.20;0.20;;;;;;;27.83;30.02;98630.78;5036863;28;20115;-60
2023/01/13 05:20:26;;;;;;;0.20;0.20;;;;;;;27.82;30.12;98636.63;5037069;28;20112;-61
2023/01/13 05:25:40;;;;;;;0.20;0.20;;;;;;;27.84;30.28;98639.84;5035894;28;20040;-60
2023/01/13 05:28:06;;;;;;;0.10;0.10;;;;;;;27.86;30.31;98656.75;5038010;28;20045;-61
2023/01/13 05:30:35;;;;;;;0.35;0.35;;;;;;;27.83;30.34;98655.47;5036872;28;20032;-61
2023/01/13 05:33:01;;;;;;;0.20;0.20;;;;;;;27.88;30.25;98657.19;5035655;28;20079;-61
2023/01/13 05:35:28;;;;;;;0.20;0.20;;;;;;;27.85;30.06;98653.19;5040640;28;20135;-60
2023/01/13 05:37:54;;;;;;;0.10;0.10;;;;;;;27.87;30.18;98667.41;5038524;28;20108;-60
2023/01/13 05:43:24;;;;;;;0.13;0.13;;;;;;;27.83;30.45;98677.44;5035877;28;20028;-60
2023/01/13 05:46:07;;;;;;;0.20;0.20;;;;;;;27.86;30.17;98682.25;5029078;28;20064;-61
2023/01/13 05:48:34;;;;;;;0.10;0.10;;;;;;;27.87;30.12;98694.84;5030437;28;20033;-60
2023/01/13 05:51:01;;;;;;;0.20;0.20;;;;;;;27.81;29.87;98685.22;5028763;28;20021;-61
2023/01/13 05:53:26;;;;;;;0.20;0.20;;;;;;;27.88;30.19;98688.19;5033495;28;20029;-60
2023/01/13 05:55:52;;;;;;;0.20;0.20;;;;;;;27.88;30.01;98677.22;5033690;28;20365;-60
2023/01/13 05:58:19;;;;;;;0.25;0.25;;;;;;;27.87;30.24;98683.88;5030760;28;20036;-59
2023/01/13 06:00:45;;;;;;;0.35;0.30;;;;;;;27.88;30.16;98687.41;5034181;28;20358;-60
2023/01/13 06:03:10;;;;;;;0.20;0.20;;;;;;;27.88;29.80;98690.16;5032619;28;20032;-60
2023/01/13 06:05:36;;;;;;;0.20;0.20;;;;;;;27.88;30.00;98684.66;5033692;28;20036;-59
2023/01/13 06:08:03;;;;;;;0.10;0.10;;;;;;;27.91;29.91;98698.53;5035393;28;20424;-59
2023/01/13 06:10:29;;;;;;;0.40;0.20;;;;;;;27.90;30.12;98694.13;5040197;28;20033;-59
2023/01/13 06:12:54;;;;;;;0.20;0.20;;;;;;;27.90;29.92;98696.88;5036541;28;20032;-60
2023/01/13 06:15:20;;;;;;;0.20;0.20;;;;;;;27.89;29.96;98708.22;5037028;28;20028;-60
2023/01/13 06:17:46;;;;;;;0.30;0.30;;;;;;;27.91;30.00;98711.44;5040232;28;20033;-59
2023/01/13 06:20:12;;;;;;;0.20;0.20;;;;;;;27.93;30.06;98724.84;5037421;28;20371;-59
2023/01/13 06:22:39;;;;;;;0.30;0.30;;;;;;;27.89;30.16;98720.00;5040186;28;20021;-59
2023/01/13 06:25:29;;;;;;;0.30;0.30;;;;;;;27.90;29.91;98729.81;5037402;28;20029;-59
2023/01/13 06:27:55;;;;;;;0.20;0.20;;;;;;;27.89;30.17;98733.72;5037268;28;20041;-60
2023/01/13 06:30:21;;;;;;;0.20;0.20;;;;;;;27.87;30.36;98733.28;5037671;28;20040;-59
2023/01/13 06:32:52;;;;;;;0.20;0.20;;;;;;;27.87;30.40;98744.25;5037826;28;20391;-60
2023/01/13 06:35:21;;;;;;;0.30;0.30;;;;;;;27.89;30.20;98754.91;5040903;28;20029;-60
2023/01/13 06:37:48;;;;;;;0.20;0.20;;;;;;;27.94;29.91;98771.16;5037937;28;20120;-60
2023/01/13 06:40:14;;;;;;;0.20;0.20;;;;;;;27.93;29.93;98779.75;5037447;28;20056;-60
2023/01/13 06:45:24;;;;;;;0.20;0.20;;;;;;;27.95;29.81;98785.69;5037746;28;20048;-60
2023/01/13 06:47:50;;;;;;;0.20;0.20;;;;;;;27.95;30.08;98782.94;5037599;28;20103;-59
2023/01/13 06:50:17;;;;;;;0.30;0.30;;;;;;;27.98;30.09;98782.25;5038056;28;20558;-59
2023/01/13 06:52:43;;;;;;;0.28;0.20;;;;;;;27.96;30.26;98796.31;5036600;28;21414;-59
2023/01/13 06:55:08;;;;;;;0.30;0.30;;;;;;;27.94;30.08;98798.63;5036388;28;20028;-60
2023/01/13 06:57:34;;;;;;;0.20;0.20;;;;;;;27.97;30.16;98799.88;5037189;28;20407;-59
2023/01/13 07:00:00;;;;;;;0.20;0.20;;;;;;;28.01;30.14;98806.25;5039888;28;20028;-59
2023/01/13 07:02:27;;;;;;;0.30;0.30;;;;;;;27.94;29.97;98803.28;5037576;28;20025;-60
2023/01/13 07:04:53;;;;;;;0.30;0.30;;;;;;;27.96;30.00;98809.22;5040137;28;20364;-59
2023/01/13 07:07:19;;;;;;;0.20;0.20;;;;;;;27.97;30.03;98819.88;5034195;28;20510;-59
2023/01/13 07:09:45;;;;;;;0.50;0.30;;;;;;;27.97;29.95;98819.09;5036494;28;20111;-59
2023/01/13 07:12:13;;;;;;;0.47;0.30;;;;;;;28.01;30.03;98820.00;5035192;28;20035;-59
2023/01/13 07:17:24;;;;;;;0.20;0.20;;;;;;;27.99;30.38;98823.06;5034632;28;20091;-60
2023/01/13 07:19:51;;;;;;;0.25;0.25;;;;;;;27.97;29.79;98824.56;5039664;28;20897;-59
2023/01/13 07:22:16;;;;;;;0.28;0.20;;;;;;;27.98;29.80;98826.19;5037194;28;20029;-59
2023/01/13 07:24:42;;;;;;;0.22;0.22;;;;;;;28.03;30.08;98834.19;5035604;28;20463;-60
2023/01/13 07:27:08;;;;;;;0.30;0.30;;;;;;;28.00;29.77;98830.19;5036005;28;20368;-59
2023/01/13 07:29:33;;;;;;;0.30;0.30;;;;;;;28.02;30.14;98838.09;5036832;28;20024;-59
2023/01/13 07:32:00;;;;;;;0.30;0.30;;;;;;;28.01;30.19;98842.78;5037519;28;20321;-59
2023/01/13 07:34:25;;;;;;;0.30;0.30;;;;;;;28.01;29.79;98841.97;5035188;28;20412;-60
2023/01/13 07:36:51;;;;;;;0.30;0.30;;;;;;;28.03;29.82;98839.69;5037854;28;20035;-60
2023/01/13 07:39:17;;;;;;;0.22;0.22;;;;;;;28.00;29.84;98854.88;5038551;28;20025;-60
2023/01/13 07:44:26;;;;;;;0.30;0.30;;;;;;;28.04;30.03;98869.53;5041462;28;20110;-60
2023/01/13 07:46:56;;;;;;;0.20;0.20;;;;;;;28.06;29.86;98875.50;5041232;28;20032;-59
2023/01/13 07:49:22;;;;;;;0.30;0.30;;;;;;;28.02;30.13;98887.50;5040546;28;20071;-58
2023/01/13 07:51:47;;;;;;;0.22;0.22;;;;;;;28.01;29.76;98896.88;5043084;28;20025;-60
2023/01/13 07:54:13;;;;;;;0.30;0.30;;;;;;;28.03;30.04;98903.63;5040052;28;20559;-59
2023/01/13 07:56:39;;;;;;;0.20;0.20;;;;;;;28.00;29.66;98896.06;5040043;28;20108;-59
2023/01/13 07:59:04;;;;;;;0.20;0.20;;;;;;;28.04;29.97;98896.19;5039643;28;20095;-59
2023/01/13 08:01:30;;;;;;;0.30;0.30;;;;;;;28.04;29.93;98899.72;5039523;28;20361;-60
2023/01/13 08:03:57;;;;;;;0.30;0.30;;;;;;;28.03;30.23;98908.34;5038345;28;20036;-60
2023/01/13 08:06:23;;;;;;;0.30;0.30;;;;;;;28.05;30.33;98911.53;5037964;28;20044;-60
2023/01/13 08:08:49;;;;;;;0.30;0.30;;;;;;;28.09;29.90;98909.72;5019804;28;20025;-59
2023/01/13 08:11:15;;;;;;;0.45;0.30;;;;;;;28.01;30.28;98910.59;5037583;28;20083;-60
2023/01/13 08:13:41;;;;;;;0.30;0.30;;;;;;;28.09;29.91;98926.19;5039703;28;20058;-59
2023/01/13 08:16:08;;;;;;;0.20;0.20;;;;;;;28.04;30.06;98920.91;5040177;28;20032;-60
2023/01/13 08:18:34;;;;;;;0.55;0.30;;;;;;;28.08;29.78;98935.59;5039476;28;20024;-59
2023/01/13 08:21:01;;;;;;;0.20;0.20;;;;;;;28.05;29.91;98939.00;5039027;28;20502;-61
2023/01/13 08:23:27;;;;;;;0.30;0.30;;;;;;;28.07;29.90;98944.94;5021620;28;20017;-59
2023/01/13 08:25:53;;;;;;;0.25;0.25;;;;;;;28.05;29.99;98949.97;5041782;28;20029;-60
2023/01/13 08:28:18;;;;;;;0.30;0.30;;;;;;;28.09;29.84;98953.63;5038874;28;20047;-60
2023/01/13 08:30:44;;;;;;;0.30;0.30;;;;;;;28.05;29.92;98944.50;5039106;28;20110;-60
2023/01/13 08:33:11;;;;;;;0.43;0.38;;;;;;;28.10;29.93;98958.00;5037900;28;20929;-60
2023/01/13 08:35:38;;;;;;;0.20;0.20;;;;;;;28.13;29.72;98962.81;5039174;28;20025;-61
2023/01/13 08:38:04;;;;;;;0.20;0.20;;;;;;;28.10;29.72;98963.50;5042527;28;20111;-60
2023/01/13 08:40:29;;;;;;;0.20;0.20;;;;;;;28.13;29.90;98964.75;5039172;28;20033;-60
2023/01/13 08:42:56;;;;;;;0.20;0.20;;;;;;;28.12;29.76;98969.44;5038155;28;20024;-60
2023/01/13 08:45:21;;;;;;;0.20;0.20;;;;;;;28.13;29.87;98976.56;5039592;28;20107;-60
2023/01/13 08:47:47;;;;;;;0.20;0.20;;;;;;;28.09;30.40;98973.66;5031315;28;20033;-60
2023/01/13 08:50:12;;;;;;;0.28;0.28;;;;;;;28.08;29.92;98979.50;5038884;28;20028;-60
2023/01/13 08:52:38;;;;;;;0.13;0.13;;;;;;;28.09;30.18;98973.66;5040240;28;20555;-61
2023/01/13 08:55:04;;;;;;;0.20;0.20;;;;;;;28.12;29.94;98983.19;5037985;28;20341;-60
2023/01/13 08:57:30;;;;;;;0.20;0.20;;;;;;;28.08;29.84;98985.00;5039211;28;20445;-60
2023/01/13 08:59:55;;;;;;;0.20;0.20;;;;;;;28.10;30.05;98993.72;5038993;28;20032;-60
2023/01/13 09:02:22;;;;;;;0.30;0.30;;;;;;;28.13;29.82;98995.78;5037038;28;20235;-60
2023/01/13 09:04:47;;;;;;;0.50;0.30;;;;;;;28.13;30.09;98998.53;5039977;28;20507;-61
2023/01/13 09:07:13;;;;;;;0.25;0.25;;;;;;;28.10;30.21;98993.72;5038382;28;20189;-60
2023/01/13 09:09:39;;;;;;;0.20;0.20;;;;;;;28.14;30.13;99004.81;5021586;28;20017;-60
2023/01/13 09:14:49;;;;;;;;;;;;;;;28.18;30.03;99020.28;5037406;28;20032;-58
2023/01/13 09:17:14;;;;;;;0.20;0.20;;;;;;;28.12;30.20;99005.16;5039702;28;19913;-61
2023/01/13 09:19:40;;;;;;;0.30;0.30;;;;;;;28.13;29.96;99020.50;5039036;28;20108;-61
2023/01/13 09:22:06;;;;;;;0.25;0.25;;;;;;;28.12;29.98;99024.38;5036164;28;20021;-61
2023/01/13 09:24:32;;;;;;;0.22;0.22;;;;;;;28.12;30.03;99024.38;5038250;28;20032;-61
2023/01/13 09:26:57;;;;;;;0.20;0.20;;;;;;;28.15;29.91;99036.63;5037287;28;20033;-60
2023/01/13 09:29:23;;;;;;;0.17;0.17;;;;;;;28.19;30.00;99030.13;5038485;28;20025;-60
2023/01/13 09:31:49;;;;;;;0.20;0.20;;;;;;;28.21;29.95;99029.78;5038001;28;20029;-60
2023/01/13 09:37:01;;;;;;;0.20;0.20;;;;;;;28.16;29.82;99032.75;5036404;28;20554;-61
2023/01/13 09:39:26;;;;;;;0.25;0.20;;;;;;;28.17;30.18;99024.16;5039694;28;20029;-61
2023/01/13 09:44:54;;;;;;;0.52;0.40;;;;;;;28.22;29.99;99026.69;5036340;28;20032;-60
2023/01/13 09:47:44;;;;;;;0.30;0.30;;;;;;;28.22;29.94;99034.94;5038922;28;20021;-60
2023/01/13 09:50:13;;;;;;;0.20;0.20;;;;;;;28.22;29.89;99034.94;5040870;28;20036;-60
2023/01/13 09:52:39;;;;;;;0.28;0.28;;;;;;;28.20;29.96;99042.72;5038043;28;20020;-61
2023/01/13 09:55:20;;;;;;;0.20;0.20;;;;;;;28.20;30.25;99039.97;5036758;28;20033;-60
2023/01/13 09:57:45;;;;;;;0.30;0.30;;;;;;;28.22;30.03;99040.44;5036257;28;20021;-60
2023/01/13 10:00:16;;;;;;;0.30;0.30;;;;;;;28.22;30.18;99045.91;5037849;28;20082;-61
2023/01/13 10:02:57;;;;;;;0.20;0.20;;;;;;;28.23;30.13;99042.00;5018698;28;20048;-61
2023/01/13 10:05:39;;;;;;;0.40;0.30;;;;;;;28.25;29.71;99039.75;5039148;28;20040;-60
2023/01/13 10:08:14;;;;;;;0.20;0.20;;;;;;;28.17;29.83;99040.63;5034840;28;20074;-60
2023/01/13 10:10:48;;;;;;;0.20;0.20;;;;;;;28.27;30.22;99048.47;5037682;28;20024;-60
2023/01/13 10:13:19;;;;;;;0.30;0.30;;;;;;;28.25;30.13;99049.91;5034662;28;20092;-60
2023/01/13 10:16:10;;;;;;;0.20;0.20;;;;;;;28.28;30.04;99047.28;5037646;28;20032;-59
2023/01/13 10:19:07;;;;;;;0.13;0.13;;;;;;;28.25;29.66;99044.44;5038553;28;20561;-59
2023/01/13 10:21:47;;;;;;;0.20;0.20;;;;;;;28.26;29.93;99046.84;4994953;28;20943;-60
2023/01/13 10:24:28;;;;;;;0.35;0.20;;;;;;;28.25;29.83;99048.00;5035163;28;20287;-59
2023/01/13 10:27:00;;;;;;;0.30;0.30;;;;;;;28.25;30.06;99033.44;5036600;28;20082;-60
2023/01/13 10:29:27;;;;;;;0.22;0.22;;;;;;;28.27;29.72;99042.16;5035508;28;20369;-59
2023/01/13 10:31:54;;;;;;;0.30;0.30;;;;;;;28.29;29.91;99048.91;5039553;28;20295;-60
2023/01/13 10:34:20;;;;;;;0.25;0.25;;;;;;;28.30;29.64;99046.97;5037731;28;20028;-60
2023/01/13 10:37:07;;;;;;;0.65;0.30;;;;;;;28.32;30.09;99054.88;5037342;28;20321;-60
2023/01/13 10:39:43;;;;;;;0.15;0.15;;;;;;;28.31;29.97;99045.03;5036364;28;20036;-60
2023/01/13 10:42:16;;;;;;;0.40;0.30;;;;;;;28.29;29.86;99039.88;5034524;28;20028;-59
2023/01/13 10:44:53;;;;;;;0.30;0.30;;;;;;;28.30;30.03;99052.47;5039647;28;20148;-60
2023/01/13 10:47:26;;;;;;;0.30;0.20;;;;;;;28.29;29.63;99051.66;5038252;28;20040;-59
2023/01/13 10:50:02;;;;;;;0.30;0.30;;;;;;;28.28;30.22;99044.56;5037776;28;20029;-59
2023/01/13 10:52:29;;;;;;;0.32;0.32;;;;;;;28.31;29.85;99043.09;5038409;28;20032;-59
2023/01/13 10:54:55;;;;;;;0.50;0.30;;;;;;;28.29;29.72;99031.63;5035635;28;20028;-59
2023/01/13 10:57:25;;;;;;;0.63;0.30;;;;;;;28.32;29.82;99027.41;5038131;28;20516;-59
2023/01/13 10:59:51;;;;;;;0.30;0.30;;;;;;;28.32;29.91;99032.88;5038985;28;20205;-59
2023/01/13 11:02:35;;;;;;;0.43;0.30;;;;;;;28.35;30.04;99037.72;5037168;28;20035;-59
2023/01/13 11:05:23;;;;;;;0.20;0.20;;;;;;;28.36;29.94;99039.31;5035171;28;20098;-59
2023/01/13 11:07:51;;;;;;;0.20;0.20;;;;;;;28.37;29.75;99047.22;5020943;28;20521;-59
2023/01/13 11:10:18;;;;;;;0.40;0.40;;;;;;;28.35;29.80;99038.50;5020043;28;20460;-59
2023/01/13 11:13:10;;;;;;;0.28;0.28;;;;;;;28.37;30.02;99033.50;5037173;28;20025;-58
2023/01/13 11:15:39;;;;;;;0.28;0.28;;;;;;;28.32;30.14;99021.91;5039744;28;20115;-59
2023/01/13 11:19:10;;;;;;;0.30;0.30;;;;;;;28.43;29.91;99023.09;5042846;28;20033;-59
2023/01/13 11:21:45;;;;;;;0.30;0.30;;;;;;;28.38;29.87;99037.84;5023146;28;20318;-58
2023/01/13 11:24:29;;;;;;;0.30;0.30;;;;;;;28.38;29.95;99042.53;5041085;28;20036;-58
2023/01/13 11:27:23;;;;;;;0.20;0.20;;;;;;;28.38;30.01;99039.78;5038811;28;20025;-59
2023/01/13 11:30:00;;;;;;;0.20;0.20;;;;;;;28.38;29.89;99048.03;5020795;28;20047;-59
2023/01/13 11:32:25;;;;;;;0.17;0.17;;;;;;;28.37;29.80;99036.25;5039661;28;20028;-59
2023/01/13 11:34:58;;;;;;;0.30;0.30;;;;;;;28.42;29.81;99037.94;5039283;28;20052;-59
2023/01/13 11:37:29;;;;;;;0.52;0.40;;;;;;;28.42;29.92;99041.53;5025775;28;20036;-59
2023/01/13 11:40:11;;;;;;;0.20;0.20;;;;;;;28.42;30.00;99048.94;5041004;28;20025;-59
2023/01/13 11:43:00;;;;;;;0.20;0.20;;;;;;;28.43;29.85;99050.56;5038635;28;20025;-58
2023/01/13 11:45:36;;;;;;;0.30;0.30;;;;;;;28.41;30.00;99052.84;5023104;28;20557;-58
2023/01/13 11:48:01;;;;;;;0.22;0.22;;;;;;;28.42;29.88;99054.44;5039133;28;20036;-60
2023/01/13 11:50:46;;;;;;;0.40;0.40;;;;;;;28.43;30.04;99065.09;5039204;28;20120;-59
2023/01/13 11:53:30;;;;;;;0.30;0.30;;;;;;;28.44;29.74;99060.38;5037518;28;20923;-59
2023/01/13 11:56:00;;;;;;;0.57;0.30;;;;;;;28.47;29.72;99062.47;5040957;28;20036;-59
2023/01/13 11:58:32;;;;;;;0.28;0.28;;;;;;;28.45;29.80;99060.06;5033156;28;20037;-58
2023/01/13 12:01:01;;;;;;;0.70;0.40;;;;;;;28.48;29.67;99058.59;5029566;28;20280;-59
2023/01/13 12:03:34;;;;;;;0.30;0.30;;;;;;;28.48;29.58;99066.84;5027012;28;20041;-59
2023/01/13 12:06:24;;;;;;;0.28;0.28;;;;;;;28.46;29.84;99064.41;5040617;28;20036;-58
2023/01/13 12:09:10;;;;;;;0.30;0.30;;;;;;;28.45;29.86;99068.31;5040434;28;20541;-58
2023/01/13 12:14:55;;;;;;;0.20;0.20;;;;;;;28.47;29.89;99066.00;4990196;28;20037;-58
2023/01/13 12:17:35;;;;;;;0.25;0.25;;;;;;;28.47;29.75;99062.47;5040924;28;20031;-58
2023/01/13 12:20:27;;;;;;;0.30;0.20;;;;;;;28.48;29.88;99070.38;5038911;28;20526;-60
2023/01/13 12:22:54;;;;;;;0.38;0.35;;;;;;;28.47;29.90;99056.97;5036248;28;20044;-58
2023/01/13 12:25:39;;;;;;;0.73;0.30;;;;;;;28.46;29.73;99055.38;5039882;28;20079;-59
2023/01/13 12:28:09;;;;;;;0.30;0.30;;;;;;;28.49;29.60;99049.19;5038015;28;20302;-60
2023/01/13 12:30:49;;;;;;;0.50;0.40;;;;;;;28.50;29.98;99045.31;5038408;28;20480;-59
2023/01/13 12:33:44;;;;;;;0.40;0.30;;;;;;;28.55;29.56;99047.88;5038129;28;20025;-60
2023/01/13 12:36:40;;;;;;;0.30;0.30;;;;;;;28.50;29.78;99045.31;5037634;28;20187;-61